sensor_id;sensor_type;location;lat;lon;timestamp;P1;durP1;ratioP1;P2;durP2;ratioP2
8421;SDS011;4248;48.196;10.924;2023-06-10T00:01:24;22.40;;;10.63;;
8421;SDS011;4248;48.196;10.924;2023-06-10T00:03:50;18.23;;;10.90;;
8421;SDS011;4248;48.196;10.924;2023-06-10T00:06:17;16.30;;;10.97;;
8421;SDS011;4248;48.196;10.924;2023-06-10T00:08:43;15.57;;;11.50;;
8421;SDS011;4248;48.196;10.924;2023-06-10T00:11:08;16.70;;;11.60;;
8421;SDS011;4248;48.196;10.924;2023-06-10T00:13:35;15.00;;;10.93;;
8421;SDS011;4248;48.196;10.924;2023-06-10T00:16:02;15.40;;;10.80;;
8421;SDS011;4248;48.196;10.924;2023-06-10T00:18:28;18.70;;;12.10;;
8421;SDS011;4248;48.196;10.924;2023-06-10T00:20:56;19.50;;;12.10;;
8421;SDS011;4248;48.196;10.924;2023-06-10T00:23:22;18.00;;;10.77;;
8421;SDS011;4248;48.196;10.924;2023-06-10T00:25:50;15.90;;;10.73;;
8421;SDS011;4248;48.196;10.924;2023-06-10T00:28:15;15.43;;;11.67;;
8421;SDS011;4248;48.196;10.924;2023-06-10T00:30:41;18.50;;;11.50;;
8421;SDS011;4248;48.196;10.924;2023-06-10T00:33:07;17.53;;;10.77;;
8421;SDS011;4248;48.196;10.924;2023-06-10T00:35:32;15.70;;;10.33;;
8421;SDS011;4248;48.196;10.924;2023-06-10T00:37:58;15.17;;;10.80;;
8421;SDS011;4248;48.196;10.924;2023-06-10T00:40:23;16.33;;;11.93;;
8421;SDS011;4248;48.196;10.924;2023-06-10T00:42:49;15.03;;;11.40;;
8421;SDS011;4248;48.196;10.924;2023-06-10T00:45:15;15.20;;;10.57;;
8421;SDS011;4248;48.196;10.924;2023-06-10T00:47:40;14.10;;;10.07;;
8421;SDS011;4248;48.196;10.924;2023-06-10T00:50:07;16.80;;;11.03;;
8421;SDS011;4248;48.196;10.924;2023-06-10T00:52:33;13.63;;;10.10;;
8421;SDS011;4248;48.196;10.924;2023-06-10T00:55:00;16.07;;;10.40;;
8421;SDS011;4248;48.196;10.924;2023-06-10T00:57:26;13.57;;;9.40;;
8421;SDS011;4248;48.196;10.924;2023-06-10T00:59:52;17.13;;;10.20;;
8421;SDS011;4248;48.196;10.924;2023-06-10T01:02:18;16.70;;;9.57;;
8421;SDS011;4248;48.196;10.924;2023-06-10T01:04:44;13.07;;;9.67;;
8421;SDS011;4248;48.196;10.924;2023-06-10T01:07:27;19.13;;;10.07;;
8421;SDS011;4248;48.196;10.924;2023-06-10T01:10:04;14.53;;;9.90;;
8421;SDS011;4248;48.196;10.924;2023-06-10T01:13:09;16.67;;;12.07;;
8421;SDS011;4248;48.196;10.924;2023-06-10T01:15:33;17.67;;;12.80;;
8421;SDS011;4248;48.196;10.924;2023-06-10T01:20:33;13.97;;;10.63;;
8421;SDS011;4248;48.196;10.924;2023-06-10T01:23:02;15.43;;;10.90;;
8421;SDS011;4248;48.196;10.924;2023-06-10T01:25:28;16.10;;;9.77;;
8421;SDS011;4248;48.196;10.924;2023-06-10T01:28:04;13.80;;;10.03;;
8421;SDS011;4248;48.196;10.924;2023-06-10T01:33:34;18.10;;;10.13;;
8421;SDS011;4248;48.196;10.924;2023-06-10T01:36:03;12.80;;;10.20;;
8421;SDS011;4248;48.196;10.924;2023-06-10T01:38:30;16.40;;;9.90;;
8421;SDS011;4248;48.196;10.924;2023-06-10T01:41:00;12.50;;;9.67;;
8421;SDS011;4248;48.196;10.924;2023-06-10T01:43:26;12.67;;;9.50;;
8421;SDS011;4248;48.196;10.924;2023-06-10T01:45:52;14.97;;;10.37;;
8421;SDS011;4248;48.196;10.924;2023-06-10T01:48:18;14.50;;;9.63;;
8421;SDS011;4248;48.196;10.924;2023-06-10T01:50:43;13.90;;;9.67;;
8421;SDS011;4248;48.196;10.924;2023-06-10T01:53:09;21.37;;;9.83;;
8421;SDS011;4248;48.196;10.924;2023-06-10T01:55:35;13.53;;;9.10;;
8421;SDS011;4248;48.196;10.924;2023-06-10T01:58:00;13.33;;;10.23;;
8421;SDS011;4248;48.196;10.924;2023-06-10T02:00:26;13.43;;;9.03;;
8421;SDS011;4248;48.196;10.924;2023-06-10T02:02:52;13.00;;;9.60;;
8421;SDS011;4248;48.196;10.924;2023-06-10T02:05:18;16.30;;;9.20;;
8421;SDS011;4248;48.196;10.924;2023-06-10T02:07:44;12.77;;;9.23;;
8421;SDS011;4248;48.196;10.924;2023-06-10T02:10:10;15.67;;;9.97;;
8421;SDS011;4248;48.196;10.924;2023-06-10T02:12:35;13.70;;;10.37;;
8421;SDS011;4248;48.196;10.924;2023-06-10T02:15:01;12.90;;;10.30;;
8421;SDS011;4248;48.196;10.924;2023-06-10T02:17:27;14.87;;;9.43;;
8421;SDS011;4248;48.196;10.924;2023-06-10T02:19:53;16.70;;;10.20;;
8421;SDS011;4248;48.196;10.924;2023-06-10T02:22:22;13.70;;;9.90;;
8421;SDS011;4248;48.196;10.924;2023-06-10T02:24:48;14.27;;;10.83;;
8421;SDS011;4248;48.196;10.924;2023-06-10T02:27:15;15.63;;;11.80;;
8421;SDS011;4248;48.196;10.924;2023-06-10T02:29:41;15.50;;;11.43;;
8421;SDS011;4248;48.196;10.924;2023-06-10T02:32:08;16.30;;;11.80;;
8421;SDS011;4248;48.196;10.924;2023-06-10T02:34:34;15.13;;;10.90;;
8421;SDS011;4248;48.196;10.924;2023-06-10T02:37:01;17.03;;;11.53;;
8421;SDS011;4248;48.196;10.924;2023-06-10T02:39:27;16.00;;;11.83;;
8421;SDS011;4248;48.196;10.924;2023-06-10T02:41:53;16.00;;;11.47;;
8421;SDS011;4248;48.196;10.924;2023-06-10T02:44:19;17.03;;;10.80;;
8421;SDS011;4248;48.196;10.924;2023-06-10T02:46:45;15.83;;;11.20;;
8421;SDS011;4248;48.196;10.924;2023-06-10T02:49:11;13.70;;;10.23;;
8421;SDS011;4248;48.196;10.924;2023-06-10T02:51:37;14.13;;;10.50;;
8421;SDS011;4248;48.196;10.924;2023-06-10T02:54:03;14.47;;;11.13;;
8421;SDS011;4248;48.196;10.924;2023-06-10T02:56:29;15.13;;;10.60;;
8421;SDS011;4248;48.196;10.924;2023-06-10T02:58:56;17.17;;;11.40;;
8421;SDS011;4248;48.196;10.924;2023-06-10T03:01:22;18.70;;;11.07;;
8421;SDS011;4248;48.196;10.924;2023-06-10T03:03:48;14.00;;;9.80;;
8421;SDS011;4248;48.196;10.924;2023-06-10T03:06:15;15.37;;;10.80;;
8421;SDS011;4248;48.196;10.924;2023-06-10T03:08:41;14.73;;;10.00;;
8421;SDS011;4248;48.196;10.924;2023-06-10T03:11:07;15.00;;;9.70;;
8421;SDS011;4248;48.196;10.924;2023-06-10T03:13:33;14.90;;;10.03;;
8421;SDS011;4248;48.196;10.924;2023-06-10T03:15:59;15.67;;;10.80;;
8421;SDS011;4248;48.196;10.924;2023-06-10T03:18:25;15.30;;;10.60;;
8421;SDS011;4248;48.196;10.924;2023-06-10T03:20:52;16.90;;;10.50;;
8421;SDS011;4248;48.196;10.924;2023-06-10T03:23:18;14.77;;;10.97;;
8421;SDS011;4248;48.196;10.924;2023-06-10T03:25:44;18.17;;;11.30;;
8421;SDS011;4248;48.196;10.924;2023-06-10T03:28:10;18.40;;;12.70;;
8421;SDS011;4248;48.196;10.924;2023-06-10T03:30:36;15.70;;;10.67;;
8421;SDS011;4248;48.196;10.924;2023-06-10T03:33:02;15.57;;;10.87;;
8421;SDS011;4248;48.196;10.924;2023-06-10T03:35:27;12.43;;;9.03;;
8421;SDS011;4248;48.196;10.924;2023-06-10T03:37:53;13.70;;;10.37;;
8421;SDS011;4248;48.196;10.924;2023-06-10T03:40:18;14.83;;;10.67;;
8421;SDS011;4248;48.196;10.924;2023-06-10T03:42:44;16.77;;;10.40;;
8421;SDS011;4248;48.196;10.924;2023-06-10T03:45:10;15.97;;;9.90;;
8421;SDS011;4248;48.196;10.924;2023-06-10T03:47:37;13.20;;;10.00;;
8421;SDS011;4248;48.196;10.924;2023-06-10T03:50:03;13.93;;;10.40;;
8421;SDS011;4248;48.196;10.924;2023-06-10T03:52:29;17.33;;;9.50;;
8421;SDS011;4248;48.196;10.924;2023-06-10T03:54:55;14.07;;;10.03;;
8421;SDS011;4248;48.196;10.924;2023-06-10T03:57:21;13.30;;;9.40;;
8421;SDS011;4248;48.196;10.924;2023-06-10T03:59:47;12.33;;;9.13;;
8421;SDS011;4248;48.196;10.924;2023-06-10T04:02:13;14.57;;;9.80;;
8421;SDS011;4248;48.196;10.924;2023-06-10T04:04:39;15.33;;;10.23;;
8421;SDS011;4248;48.196;10.924;2023-06-10T04:07:04;13.93;;;10.00;;
8421;SDS011;4248;48.196;10.924;2023-06-10T04:09:30;14.93;;;10.23;;
8421;SDS011;4248;48.196;10.924;2023-06-10T04:11:56;14.40;;;10.30;;
8421;SDS011;4248;48.196;10.924;2023-06-10T04:14:22;17.37;;;12.43;;
8421;SDS011;4248;48.196;10.924;2023-06-10T04:16:48;14.40;;;10.80;;
8421;SDS011;4248;48.196;10.924;2023-06-10T04:19:15;14.17;;;10.73;;
8421;SDS011;4248;48.196;10.924;2023-06-10T04:21:41;13.43;;;10.27;;
8421;SDS011;4248;48.196;10.924;2023-06-10T04:24:08;21.87;;;12.10;;
8421;SDS011;4248;48.196;10.924;2023-06-10T04:26:35;18.27;;;12.43;;
8421;SDS011;4248;48.196;10.924;2023-06-10T04:29:01;17.37;;;12.37;;
8421;SDS011;4248;48.196;10.924;2023-06-10T04:31:26;19.60;;;13.20;;
8421;SDS011;4248;48.196;10.924;2023-06-10T04:33:52;16.30;;;10.90;;
8421;SDS011;4248;48.196;10.924;2023-06-10T04:36:18;17.20;;;11.53;;
8421;SDS011;4248;48.196;10.924;2023-06-10T04:38:44;22.87;;;12.83;;
8421;SDS011;4248;48.196;10.924;2023-06-10T04:41:10;18.80;;;11.10;;
8421;SDS011;4248;48.196;10.924;2023-06-10T04:43:36;13.30;;;10.10;;
8421;SDS011;4248;48.196;10.924;2023-06-10T04:46:02;14.90;;;9.40;;
8421;SDS011;4248;48.196;10.924;2023-06-10T04:48:27;13.93;;;9.00;;
8421;SDS011;4248;48.196;10.924;2023-06-10T04:50:53;15.13;;;9.03;;
8421;SDS011;4248;48.196;10.924;2023-06-10T04:53:19;15.30;;;8.70;;
8421;SDS011;4248;48.196;10.924;2023-06-10T04:55:45;13.63;;;8.33;;
8421;SDS011;4248;48.196;10.924;2023-06-10T04:58:11;11.60;;;8.63;;
8421;SDS011;4248;48.196;10.924;2023-06-10T05:00:37;12.10;;;8.20;;
8421;SDS011;4248;48.196;10.924;2023-06-10T05:03:02;10.47;;;7.97;;
8421;SDS011;4248;48.196;10.924;2023-06-10T05:05:28;11.00;;;7.83;;
8421;SDS011;4248;48.196;10.924;2023-06-10T05:07:54;11.40;;;8.10;;
8421;SDS011;4248;48.196;10.924;2023-06-10T05:10:19;11.60;;;8.03;;
8421;SDS011;4248;48.196;10.924;2023-06-10T05:12:45;13.03;;;7.40;;
8421;SDS011;4248;48.196;10.924;2023-06-10T05:15:11;10.20;;;7.57;;
8421;SDS011;4248;48.196;10.924;2023-06-10T05:17:37;11.47;;;7.80;;
8421;SDS011;4248;48.196;10.924;2023-06-10T05:20:03;10.33;;;7.53;;
8421;SDS011;4248;48.196;10.924;2023-06-10T05:22:29;9.83;;;7.53;;
8421;SDS011;4248;48.196;10.924;2023-06-10T05:24:54;10.60;;;7.00;;
8421;SDS011;4248;48.196;10.924;2023-06-10T05:27:20;8.90;;;7.07;;
8421;SDS011;4248;48.196;10.924;2023-06-10T05:29:47;9.80;;;7.80;;
8421;SDS011;4248;48.196;10.924;2023-06-10T05:32:12;8.63;;;6.57;;
8421;SDS011;4248;48.196;10.924;2023-06-10T05:34:38;10.63;;;7.17;;
8421;SDS011;4248;48.196;10.924;2023-06-10T05:37:04;11.77;;;7.13;;
8421;SDS011;4248;48.196;10.924;2023-06-10T05:39:30;10.00;;;6.97;;
8421;SDS011;4248;48.196;10.924;2023-06-10T05:41:56;9.57;;;7.30;;
8421;SDS011;4248;48.196;10.924;2023-06-10T05:44:24;9.83;;;7.30;;
8421;SDS011;4248;48.196;10.924;2023-06-10T05:46:50;9.63;;;7.40;;
8421;SDS011;4248;48.196;10.924;2023-06-10T05:49:16;8.33;;;6.87;;
8421;SDS011;4248;48.196;10.924;2023-06-10T05:51:42;11.67;;;7.40;;
8421;SDS011;4248;48.196;10.924;2023-06-10T05:54:07;10.50;;;7.10;;
8421;SDS011;4248;48.196;10.924;2023-06-10T05:56:33;9.53;;;7.20;;
8421;SDS011;4248;48.196;10.924;2023-06-10T05:58:59;9.20;;;7.23;;
8421;SDS011;4248;48.196;10.924;2023-06-10T06:01:25;9.70;;;7.30;;
8421;SDS011;4248;48.196;10.924;2023-06-10T06:03:50;16.13;;;8.93;;
8421;SDS011;4248;48.196;10.924;2023-06-10T06:06:16;16.70;;;8.40;;
8421;SDS011;4248;48.196;10.924;2023-06-10T06:08:42;13.63;;;9.17;;
8421;SDS011;4248;48.196;10.924;2023-06-10T06:11:07;12.97;;;9.00;;
8421;SDS011;4248;48.196;10.924;2023-06-10T06:13:33;12.63;;;8.50;;
8421;SDS011;4248;48.196;10.924;2023-06-10T06:15:59;12.57;;;10.10;;
8421;SDS011;4248;48.196;10.924;2023-06-10T06:18:24;12.70;;;9.17;;
8421;SDS011;4248;48.196;10.924;2023-06-10T06:20:50;13.67;;;9.47;;
8421;SDS011;4248;48.196;10.924;2023-06-10T06:23:16;12.73;;;9.40;;
8421;SDS011;4248;48.196;10.924;2023-06-10T06:25:41;17.03;;;10.73;;
8421;SDS011;4248;48.196;10.924;2023-06-10T06:28:07;14.70;;;9.70;;
8421;SDS011;4248;48.196;10.924;2023-06-10T06:30:34;17.07;;;10.30;;
8421;SDS011;4248;48.196;10.924;2023-06-10T06:33:00;19.73;;;11.57;;
8421;SDS011;4248;48.196;10.924;2023-06-10T06:35:26;25.23;;;10.53;;
8421;SDS011;4248;48.196;10.924;2023-06-10T06:37:52;13.80;;;9.57;;
8421;SDS011;4248;48.196;10.924;2023-06-10T06:40:18;13.90;;;10.03;;
8421;SDS011;4248;48.196;10.924;2023-06-10T06:42:44;14.80;;;10.13;;
8421;SDS011;4248;48.196;10.924;2023-06-10T06:45:09;15.00;;;9.80;;
8421;SDS011;4248;48.196;10.924;2023-06-10T06:47:35;14.43;;;10.00;;
8421;SDS011;4248;48.196;10.924;2023-06-10T06:50:01;14.80;;;9.70;;
8421;SDS011;4248;48.196;10.924;2023-06-10T06:52:27;12.43;;;9.57;;
8421;SDS011;4248;48.196;10.924;2023-06-10T06:54:53;17.20;;;9.93;;
8421;SDS011;4248;48.196;10.924;2023-06-10T06:57:19;16.80;;;10.33;;
8421;SDS011;4248;48.196;10.924;2023-06-10T06:59:45;14.07;;;9.73;;
8421;SDS011;4248;48.196;10.924;2023-06-10T07:02:11;15.30;;;10.73;;
8421;SDS011;4248;48.196;10.924;2023-06-10T07:04:36;17.33;;;11.07;;
8421;SDS011;4248;48.196;10.924;2023-06-10T07:07:02;16.03;;;10.73;;
8421;SDS011;4248;48.196;10.924;2023-06-10T07:09:29;15.77;;;10.50;;
8421;SDS011;4248;48.196;10.924;2023-06-10T07:11:55;16.43;;;10.33;;
8421;SDS011;4248;48.196;10.924;2023-06-10T07:14:20;14.40;;;10.10;;
8421;SDS011;4248;48.196;10.924;2023-06-10T07:16:46;13.90;;;9.57;;
8421;SDS011;4248;48.196;10.924;2023-06-10T07:19:13;13.10;;;9.83;;
8421;SDS011;4248;48.196;10.924;2023-06-10T07:21:39;14.53;;;9.80;;
8421;SDS011;4248;48.196;10.924;2023-06-10T07:24:04;13.57;;;9.50;;
8421;SDS011;4248;48.196;10.924;2023-06-10T07:26:30;11.93;;;9.50;;
8421;SDS011;4248;48.196;10.924;2023-06-10T07:28:56;14.23;;;9.60;;
8421;SDS011;4248;48.196;10.924;2023-06-10T07:31:22;16.40;;;10.20;;
8421;SDS011;4248;48.196;10.924;2023-06-10T07:33:49;17.33;;;11.37;;
8421;SDS011;4248;48.196;10.924;2023-06-10T07:36:15;14.57;;;10.60;;
8421;SDS011;4248;48.196;10.924;2023-06-10T07:38:40;15.83;;;10.97;;
8421;SDS011;4248;48.196;10.924;2023-06-10T07:41:07;12.03;;;8.60;;
8421;SDS011;4248;48.196;10.924;2023-06-10T07:43:33;13.37;;;8.70;;
8421;SDS011;4248;48.196;10.924;2023-06-10T07:45:59;14.00;;;10.23;;
8421;SDS011;4248;48.196;10.924;2023-06-10T07:48:25;12.23;;;9.10;;
8421;SDS011;4248;48.196;10.924;2023-06-10T07:50:51;11.93;;;8.73;;
8421;SDS011;4248;48.196;10.924;2023-06-10T07:53:17;12.23;;;9.13;;
8421;SDS011;4248;48.196;10.924;2023-06-10T07:55:43;16.60;;;9.87;;
8421;SDS011;4248;48.196;10.924;2023-06-10T07:58:09;10.00;;;7.60;;
8421;SDS011;4248;48.196;10.924;2023-06-10T08:00:35;13.87;;;8.57;;
8421;SDS011;4248;48.196;10.924;2023-06-10T08:03:00;14.40;;;8.70;;
8421;SDS011;4248;48.196;10.924;2023-06-10T08:05:26;14.90;;;9.30;;
8421;SDS011;4248;48.196;10.924;2023-06-10T08:07:52;13.13;;;8.97;;
8421;SDS011;4248;48.196;10.924;2023-06-10T08:10:17;14.30;;;8.97;;
8421;SDS011;4248;48.196;10.924;2023-06-10T08:12:44;18.27;;;8.87;;
8421;SDS011;4248;48.196;10.924;2023-06-10T08:15:09;14.10;;;8.23;;
8421;SDS011;4248;48.196;10.924;2023-06-10T08:17:36;12.47;;;6.43;;
8421;SDS011;4248;48.196;10.924;2023-06-10T08:20:02;10.00;;;7.17;;
8421;SDS011;4248;48.196;10.924;2023-06-10T08:22:28;9.50;;;6.97;;
8421;SDS011;4248;48.196;10.924;2023-06-10T08:24:54;10.83;;;7.40;;
8421;SDS011;4248;48.196;10.924;2023-06-10T08:27:21;15.33;;;7.20;;
8421;SDS011;4248;48.196;10.924;2023-06-10T08:29:46;10.27;;;6.83;;
8421;SDS011;4248;48.196;10.924;2023-06-10T08:32:12;12.63;;;7.30;;
8421;SDS011;4248;48.196;10.924;2023-06-10T08:34:38;10.07;;;7.10;;
8421;SDS011;4248;48.196;10.924;2023-06-10T08:37:04;14.50;;;7.50;;
8421;SDS011;4248;48.196;10.924;2023-06-10T08:39:30;9.87;;;5.83;;
8421;SDS011;4248;48.196;10.924;2023-06-10T08:42:20;9.70;;;6.07;;
8421;SDS011;4248;48.196;10.924;2023-06-10T08:44:52;7.93;;;5.33;;
8421;SDS011;4248;48.196;10.924;2023-06-10T08:47:24;9.20;;;6.13;;
8421;SDS011;4248;48.196;10.924;2023-06-10T08:49:50;8.30;;;6.17;;
8421;SDS011;4248;48.196;10.924;2023-06-10T08:52:19;9.63;;;6.83;;
8421;SDS011;4248;48.196;10.924;2023-06-10T08:54:49;7.43;;;5.10;;
8421;SDS011;4248;48.196;10.924;2023-06-10T08:57:19;10.70;;;6.73;;
8421;SDS011;4248;48.196;10.924;2023-06-10T08:59:46;9.67;;;6.03;;
8421;SDS011;4248;48.196;10.924;2023-06-10T09:02:13;10.20;;;6.33;;
8421;SDS011;4248;48.196;10.924;2023-06-10T09:04:42;9.00;;;6.03;;
8421;SDS011;4248;48.196;10.924;2023-06-10T09:07:09;9.83;;;6.47;;
8421;SDS011;4248;48.196;10.924;2023-06-10T09:09:36;9.63;;;5.63;;
8421;SDS011;4248;48.196;10.924;2023-06-10T09:12:02;10.00;;;6.30;;
8421;SDS011;4248;48.196;10.924;2023-06-10T09:14:28;8.33;;;5.83;;
8421;SDS011;4248;48.196;10.924;2023-06-10T09:16:54;8.13;;;5.57;;
8421;SDS011;4248;48.196;10.924;2023-06-10T09:19:23;9.67;;;5.87;;
8421;SDS011;4248;48.196;10.924;2023-06-10T09:21:50;7.87;;;4.63;;
8421;SDS011;4248;48.196;10.924;2023-06-10T09:24:15;7.63;;;4.87;;
8421;SDS011;4248;48.196;10.924;2023-06-10T09:26:42;7.00;;;5.00;;
8421;SDS011;4248;48.196;10.924;2023-06-10T09:29:09;7.97;;;5.23;;
8421;SDS011;4248;48.196;10.924;2023-06-10T09:31:36;11.80;;;5.23;;
8421;SDS011;4248;48.196;10.924;2023-06-10T09:34:13;7.77;;;5.37;;
8421;SDS011;4248;48.196;10.924;2023-06-10T09:36:41;9.10;;;5.93;;
8421;SDS011;4248;48.196;10.924;2023-06-10T09:39:18;7.67;;;5.60;;
8421;SDS011;4248;48.196;10.924;2023-06-10T09:41:44;7.70;;;5.17;;
8421;SDS011;4248;48.196;10.924;2023-06-10T09:44:11;7.60;;;5.17;;
8421;SDS011;4248;48.196;10.924;2023-06-10T09:46:41;8.30;;;5.23;;
8421;SDS011;4248;48.196;10.924;2023-06-10T09:49:09;7.30;;;4.60;;
8421;SDS011;4248;48.196;10.924;2023-06-10T09:51:35;6.27;;;4.07;;
8421;SDS011;4248;48.196;10.924;2023-06-10T09:54:04;5.77;;;3.63;;
8421;SDS011;4248;48.196;10.924;2023-06-10T09:56:36;8.57;;;4.60;;
8421;SDS011;4248;48.196;10.924;2023-06-10T09:59:02;7.40;;;4.77;;
8421;SDS011;4248;48.196;10.924;2023-06-10T10:01:31;6.20;;;4.43;;
8421;SDS011;4248;48.196;10.924;2023-06-10T10:03:58;5.90;;;3.83;;
8421;SDS011;4248;48.196;10.924;2023-06-10T10:06:24;6.17;;;4.27;;
8421;SDS011;4248;48.196;10.924;2023-06-10T10:08:51;6.87;;;4.03;;
8421;SDS011;4248;48.196;10.924;2023-06-10T10:11:17;17.50;;;4.60;;
8421;SDS011;4248;48.196;10.924;2023-06-10T10:13:46;7.93;;;4.30;;
8421;SDS011;4248;48.196;10.924;2023-06-10T10:16:17;6.70;;;4.33;;
8421;SDS011;4248;48.196;10.924;2023-06-10T10:19:12;8.20;;;3.93;;
8421;SDS011;4248;48.196;10.924;2023-06-10T10:21:57;8.60;;;4.17;;
8421;SDS011;4248;48.196;10.924;2023-06-10T10:25:02;9.83;;;4.40;;
8421;SDS011;4248;48.196;10.924;2023-06-10T10:27:33;7.20;;;4.30;;
8421;SDS011;4248;48.196;10.924;2023-06-10T10:30:05;7.60;;;5.07;;
8421;SDS011;4248;48.196;10.924;2023-06-10T10:32:42;6.73;;;4.73;;
8421;SDS011;4248;48.196;10.924;2023-06-10T10:35:17;5.40;;;3.53;;
8421;SDS011;4248;48.196;10.924;2023-06-10T10:37:51;5.73;;;3.80;;
8421;SDS011;4248;48.196;10.924;2023-06-10T10:40:18;7.73;;;4.10;;
8421;SDS011;4248;48.196;10.924;2023-06-10T10:42:45;9.17;;;4.10;;
8421;SDS011;4248;48.196;10.924;2023-06-10T10:45:16;5.67;;;3.70;;
8421;SDS011;4248;48.196;10.924;2023-06-10T10:47:43;5.10;;;3.40;;
8421;SDS011;4248;48.196;10.924;2023-06-10T10:50:17;6.53;;;3.60;;
8421;SDS011;4248;48.196;10.924;2023-06-10T10:52:51;7.53;;;3.80;;
8421;SDS011;4248;48.196;10.924;2023-06-10T10:55:24;6.23;;;3.00;;
8421;SDS011;4248;48.196;10.924;2023-06-10T10:58:11;6.33;;;3.50;;
8421;SDS011;4248;48.196;10.924;2023-06-10T11:00:44;6.57;;;4.00;;
8421;SDS011;4248;48.196;10.924;2023-06-10T11:03:13;4.60;;;3.13;;
8421;SDS011;4248;48.196;10.924;2023-06-10T11:05:44;5.37;;;3.07;;
8421;SDS011;4248;48.196;10.924;2023-06-10T11:08:13;5.07;;;3.23;;
8421;SDS011;4248;48.196;10.924;2023-06-10T11:10:59;6.57;;;4.23;;
8421;SDS011;4248;48.196;10.924;2023-06-10T11:13:26;5.13;;;3.40;;
8421;SDS011;4248;48.196;10.924;2023-06-10T11:15:52;4.53;;;2.83;;
8421;SDS011;4248;48.196;10.924;2023-06-10T11:18:23;5.50;;;3.40;;
8421;SDS011;4248;48.196;10.924;2023-06-10T11:25:50;6.03;;;3.77;;
8421;SDS011;4248;48.196;10.924;2023-06-10T11:28:19;8.30;;;3.60;;
8421;SDS011;4248;48.196;10.924;2023-06-10T11:30:45;7.17;;;3.70;;
8421;SDS011;4248;48.196;10.924;2023-06-10T11:33:14;7.20;;;4.30;;
8421;SDS011;4248;48.196;10.924;2023-06-10T11:35:42;8.03;;;4.43;;
8421;SDS011;4248;48.196;10.924;2023-06-10T11:38:08;5.80;;;3.80;;
8421;SDS011;4248;48.196;10.924;2023-06-10T11:40:34;8.67;;;4.60;;
8421;SDS011;4248;48.196;10.924;2023-06-10T11:43:03;6.97;;;4.40;;
8421;SDS011;4248;48.196;10.924;2023-06-10T11:45:29;5.67;;;4.10;;
8421;SDS011;4248;48.196;10.924;2023-06-10T11:47:58;12.33;;;4.87;;
8421;SDS011;4248;48.196;10.924;2023-06-10T11:50:28;9.50;;;4.70;;
8421;SDS011;4248;48.196;10.924;2023-06-10T11:52:54;6.40;;;4.47;;
8421;SDS011;4248;48.196;10.924;2023-06-10T11:55:21;7.87;;;4.20;;
8421;SDS011;4248;48.196;10.924;2023-06-10T11:57:46;6.83;;;3.63;;
8421;SDS011;4248;48.196;10.924;2023-06-10T12:00:14;5.80;;;3.67;;
8421;SDS011;4248;48.196;10.924;2023-06-10T12:02:40;6.30;;;4.10;;
8421;SDS011;4248;48.196;10.924;2023-06-10T12:05:12;7.73;;;4.63;;
8421;SDS011;4248;48.196;10.924;2023-06-10T12:07:38;6.53;;;4.13;;
8421;SDS011;4248;48.196;10.924;2023-06-10T12:10:03;7.30;;;3.90;;
8421;SDS011;4248;48.196;10.924;2023-06-10T12:12:30;5.63;;;3.80;;
8421;SDS011;4248;48.196;10.924;2023-06-10T12:14:56;6.80;;;4.30;;
8421;SDS011;4248;48.196;10.924;2023-06-10T12:17:44;9.20;;;4.50;;
8421;SDS011;4248;48.196;10.924;2023-06-10T12:20:23;8.33;;;4.40;;
8421;SDS011;4248;48.196;10.924;2023-06-10T12:22:53;6.80;;;4.70;;
8421;SDS011;4248;48.196;10.924;2023-06-10T12:25:23;6.63;;;4.90;;
8421;SDS011;4248;48.196;10.924;2023-06-10T12:27:54;9.43;;;4.33;;
8421;SDS011;4248;48.196;10.924;2023-06-10T12:30:24;6.10;;;4.03;;
8421;SDS011;4248;48.196;10.924;2023-06-10T12:32:51;6.03;;;4.57;;
8421;SDS011;4248;48.196;10.924;2023-06-10T12:35:24;5.70;;;3.70;;
8421;SDS011;4248;48.196;10.924;2023-06-10T12:37:59;7.13;;;4.00;;
8421;SDS011;4248;48.196;10.924;2023-06-10T12:40:30;6.90;;;4.70;;
8421;SDS011;4248;48.196;10.924;2023-06-10T12:42:58;6.00;;;4.40;;
8421;SDS011;4248;48.196;10.924;2023-06-10T12:48:09;5.80;;;4.00;;
8421;SDS011;4248;48.196;10.924;2023-06-10T12:50:36;5.70;;;3.70;;
8421;SDS011;4248;48.196;10.924;2023-06-10T12:53:03;8.90;;;4.10;;
8421;SDS011;4248;48.196;10.924;2023-06-10T12:55:29;7.40;;;3.93;;
8421;SDS011;4248;48.196;10.924;2023-06-10T12:57:55;6.50;;;3.47;;
8421;SDS011;4248;48.196;10.924;2023-06-10T13:00:22;5.90;;;3.50;;
8421;SDS011;4248;48.196;10.924;2023-06-10T13:02:50;5.17;;;3.70;;
8421;SDS011;4248;48.196;10.924;2023-06-10T13:05:17;5.60;;;4.03;;
8421;SDS011;4248;48.196;10.924;2023-06-10T13:07:45;10.50;;;4.40;;
8421;SDS011;4248;48.196;10.924;2023-06-10T13:10:11;7.17;;;5.20;;
8421;SDS011;4248;48.196;10.924;2023-06-10T13:12:38;6.70;;;4.93;;
8421;SDS011;4248;48.196;10.924;2023-06-10T13:15:04;7.93;;;5.73;;
8421;SDS011;4248;48.196;10.924;2023-06-10T13:17:31;7.10;;;4.67;;
8421;SDS011;4248;48.196;10.924;2023-06-10T13:19:56;9.80;;;5.47;;
8421;SDS011;4248;48.196;10.924;2023-06-10T13:22:22;6.53;;;4.20;;
8421;SDS011;4248;48.196;10.924;2023-06-10T13:24:49;10.10;;;5.20;;
8421;SDS011;4248;48.196;10.924;2023-06-10T13:27:14;7.53;;;5.03;;
8421;SDS011;4248;48.196;10.924;2023-06-10T13:29:40;54.77;;;7.70;;
8421;SDS011;4248;48.196;10.924;2023-06-10T13:32:06;19.00;;;5.77;;
8421;SDS011;4248;48.196;10.924;2023-06-10T13:34:32;59.30;;;7.27;;
8421;SDS011;4248;48.196;10.924;2023-06-10T13:36:58;9.30;;;5.43;;
8421;SDS011;4248;48.196;10.924;2023-06-10T13:39:24;8.10;;;6.10;;
8421;SDS011;4248;48.196;10.924;2023-06-10T13:41:49;6.90;;;4.60;;
8421;SDS011;4248;48.196;10.924;2023-06-10T13:44:17;7.70;;;4.73;;
8421;SDS011;4248;48.196;10.924;2023-06-10T13:46:42;9.83;;;5.40;;
8421;SDS011;4248;48.196;10.924;2023-06-10T13:49:08;8.63;;;5.00;;
8421;SDS011;4248;48.196;10.924;2023-06-10T13:51:34;9.43;;;4.50;;
8421;SDS011;4248;48.196;10.924;2023-06-10T13:54:00;8.17;;;5.13;;
8421;SDS011;4248;48.196;10.924;2023-06-10T13:56:25;6.77;;;4.60;;
8421;SDS011;4248;48.196;10.924;2023-06-10T13:58:51;7.07;;;5.07;;
8421;SDS011;4248;48.196;10.924;2023-06-10T14:01:17;8.97;;;4.20;;
8421;SDS011;4248;48.196;10.924;2023-06-10T14:03:43;8.80;;;4.60;;
8421;SDS011;4248;48.196;10.924;2023-06-10T14:06:08;11.27;;;4.57;;
8421;SDS011;4248;48.196;10.924;2023-06-10T14:08:34;6.23;;;3.70;;
8421;SDS011;4248;48.196;10.924;2023-06-10T14:11:00;6.10;;;4.40;;
8421;SDS011;4248;48.196;10.924;2023-06-10T14:13:26;6.47;;;4.37;;
8421;SDS011;4248;48.196;10.924;2023-06-10T14:15:52;8.33;;;4.60;;
8421;SDS011;4248;48.196;10.924;2023-06-10T14:18:17;9.50;;;4.70;;
8421;SDS011;4248;48.196;10.924;2023-06-10T14:20:43;6.70;;;4.83;;
8421;SDS011;4248;48.196;10.924;2023-06-10T14:23:09;6.37;;;4.50;;
8421;SDS011;4248;48.196;10.924;2023-06-10T14:25:34;9.00;;;4.80;;
8421;SDS011;4248;48.196;10.924;2023-06-10T14:28:00;8.30;;;4.97;;
8421;SDS011;4248;48.196;10.924;2023-06-10T14:30:25;5.57;;;3.83;;
8421;SDS011;4248;48.196;10.924;2023-06-10T14:32:51;7.20;;;4.10;;
8421;SDS011;4248;48.196;10.924;2023-06-10T14:35:17;7.70;;;4.33;;
8421;SDS011;4248;48.196;10.924;2023-06-10T14:37:42;6.50;;;4.50;;
8421;SDS011;4248;48.196;10.924;2023-06-10T14:40:08;5.50;;;4.00;;
8421;SDS011;4248;48.196;10.924;2023-06-10T14:42:34;9.10;;;4.77;;
8421;SDS011;4248;48.196;10.924;2023-06-10T14:45:00;6.33;;;3.90;;
8421;SDS011;4248;48.196;10.924;2023-06-10T14:47:26;7.37;;;3.87;;
8421;SDS011;4248;48.196;10.924;2023-06-10T14:49:51;5.20;;;3.77;;
8421;SDS011;4248;48.196;10.924;2023-06-10T14:52:17;6.20;;;4.20;;
8421;SDS011;4248;48.196;10.924;2023-06-10T14:54:42;5.83;;;4.03;;
8421;SDS011;4248;48.196;10.924;2023-06-10T14:57:08;5.93;;;4.10;;
8421;SDS011;4248;48.196;10.924;2023-06-10T14:59:35;4.73;;;3.23;;
8421;SDS011;4248;48.196;10.924;2023-06-10T15:02:01;5.70;;;3.63;;
8421;SDS011;4248;48.196;10.924;2023-06-10T15:04:27;5.83;;;3.90;;